Time;durP1;ratioP1;P1;durP2;ratioP2;P2;SDS_P1;SDS_P2;PMS_P1;PMS_P2;Temp;Humidity;BMP_temperature;BMP_pressure;BME280_temperature;BME280_humidity;BME280_pressure;Samples;Min_cycle;Max_cycle;Signal;HPM_P1;HPM_P2
2023/09/21 00:00:20;;;;;;;0.10;0.10;;;;;;;19.47;60.26;99541.66;5354710;26;20030;-94
2023/09/21 00:06:03;;;;;;;0.10;0.00;;;;;;;19.50;60.25;99537.97;5325874;26;20091;-95
2023/09/21 00:08:29;;;;;;;0.20;0.20;;;;;;;19.37;60.24;99535.34;5358776;26;20082;-93
2023/09/21 00:10:55;;;;;;;0.10;0.10;;;;;;;19.40;60.25;99542.19;5311349;26;20123;-95
2023/09/21 00:13:26;;;;;;;0.03;0.03;;;;;;;19.36;60.24;99540.72;5311367;26;20110;-96
2023/09/21 00:15:55;;;;;;;0.75;0.32;;;;;;;19.42;60.24;99543.81;5330368;26;20185;-94
2023/09/21 00:18:23;;;;;;;0.10;0.05;;;;;;;19.44;60.25;99538.41;5311106;26;20064;-94
2023/09/21 00:20:52;;;;;;;0.00;0.00;;;;;;;19.38;60.25;99542.31;5311578;26;20074;-94
2023/09/21 00:23:21;;;;;;;1.45;0.43;;;;;;;19.28;60.24;99541.28;5311272;26;20048;-92
2023/09/21 00:25:47;;;;;;;0.00;0.00;;;;;;;19.51;60.25;99537.84;5311368;26;20133;-92
2023/09/21 00:28:12;;;;;;;0.00;0.00;;;;;;;19.43;60.25;99539.38;5310316;26;20064;-92
2023/09/21 00:31:28;;;;;;;0.10;0.10;;;;;;;19.24;60.24;99535.41;5310264;26;20055;-94
2023/09/21 00:33:54;;;;;;;1.27;0.80;;;;;;;19.16;60.23;99531.59;5334307;26;20087;-94
2023/09/21 00:36:32;;;;;;;0.00;0.00;;;;;;;19.19;60.24;99537.53;5310919;26;20336;-93
2023/09/21 00:38:57;;;;;;;0.30;0.30;;;;;;;19.03;60.23;99529.00;5312149;26;20397;-93
2023/09/21 00:41:23;;;;;;;0.00;0.00;;;;;;;19.06;60.22;99520.84;5310544;26;20107;-93
2023/09/21 00:43:48;;;;;;;0.10;0.10;;;;;;;19.05;60.22;99526.25;5310854;26;20087;-94
2023/09/21 00:46:14;;;;;;;0.00;0.00;;;;;;;19.17;60.23;99517.47;5310878;26;20139;-94
2023/09/21 00:49:14;;;;;;;0.25;0.15;;;;;;;19.14;60.22;99518.50;5311026;26;20078;-94
2023/09/21 00:51:40;;;;;;;0.10;0.10;;;;;;;19.29;60.23;99525.34;5324213;26;20161;-95
2023/09/21 00:54:05;;;;;;;0.00;0.00;;;;;;;19.11;60.23;99521.37;5329762;26;20071;-94
2023/09/21 00:56:31;;;;;;;0.10;0.10;;;;;;;18.91;60.21;99522.75;5311702;26;20068;-94
2023/09/21 00:58:57;;;;;;;0.08;0.08;;;;;;;19.10;60.23;99517.03;5311298;26;20087;-94
2023/09/21 01:01:28;;;;;;;0.10;0.10;;;;;;;19.02;60.23;99516.75;5312391;26;20051;-94
2023/09/21 01:03:58;;;;;;;0.40;0.15;;;;;;;18.85;60.21;99517.09;5311755;26;20066;-93
2023/09/21 01:06:23;;;;;;;1.37;0.65;;;;;;;18.72;60.21;99516.28;5311908;26;20081;-94
2023/09/21 01:08:49;;;;;;;0.00;0.00;;;;;;;18.70;60.21;99516.38;5310769;26;20064;-94
2023/09/21 01:11:14;;;;;;;0.00;0.00;;;;;;;18.79;60.22;99509.59;5311066;26;20384;-94
2023/09/21 01:13:41;;;;;;;3.87;0.32;;;;;;;18.64;60.21;99508.88;5310903;26;20066;-94
2023/09/21 01:16:08;;;;;;;0.00;0.00;;;;;;;18.59;60.19;99508.31;5329329;26;20080;-94
2023/09/21 01:18:33;;;;;;;0.35;0.35;;;;;;;18.52;60.19;99507.91;5331109;26;20101;-93
2023/09/21 01:21:04;;;;;;;0.00;0.00;;;;;;;18.68;60.20;99507.69;5311790;26;20079;-95
2023/09/21 01:23:42;;;;;;;0.00;0.00;;;;;;;18.61;60.19;99509.88;5314572;26;20437;-95
2023/09/21 01:26:08;;;;;;;0.30;0.28;;;;;;;18.75;60.21;99508.13;5315892;26;20067;-95
2023/09/21 01:28:33;;;;;;;0.10;0.10;;;;;;;18.63;60.21;99510.66;5321100;26;20078;-94
2023/09/21 01:30:58;;;;;;;0.10;0.10;;;;;;;18.54;60.21;99507.78;5311912;26;20566;-93
2023/09/21 01:33:24;;;;;;;0.00;0.00;;;;;;;18.39;60.20;99501.75;5311721;26;20388;-94
2023/09/21 01:35:49;;;;;;;0.00;0.00;;;;;;;18.49;60.20;99499.38;5329443;26;20419;-95
2023/09/21 01:38:15;;;;;;;0.00;0.00;;;;;;;18.55;60.20;99498.94;5311264;26;20322;-95
2023/09/21 01:40:41;;;;;;;0.20;0.13;;;;;;;18.52;60.19;99494.72;5311403;26;20056;-94
2023/09/21 01:43:08;;;;;;;3.10;0.45;;;;;;;18.61;60.21;99487.97;5311355;26;20056;-94
2023/09/21 01:45:39;;;;;;;0.52;0.50;;;;;;;18.55;60.20;99497.13;5310956;26;20067;-93
2023/09/21 01:48:08;;;;;;;0.13;0.13;;;;;;;18.51;60.19;99490.41;5311868;26;20087;-95
2023/09/21 01:50:43;;;;;;;1.65;0.30;;;;;;;18.54;60.19;99491.97;5311751;26;20073;-95
2023/09/21 01:53:09;;;;;;;0.00;0.00;;;;;;;18.50;60.20;99488.72;5332188;26;20047;-95
2023/09/21 01:55:35;;;;;;;0.35;0.30;;;;;;;18.45;60.19;99488.16;5311575;26;20446;-95
2023/09/21 01:58:04;;;;;;;13.35;0.68;;;;;;;18.47;60.20;99490.72;5311436;26;20082;-95
2023/09/21 02:00:34;;;;;;;0.00;0.00;;;;;;;18.49;60.20;99481.75;5311761;26;20048;-95
2023/09/21 02:03:06;;;;;;;0.00;0.00;;;;;;;18.44;60.19;99475.94;5313445;26;20052;-96
2023/09/21 02:05:31;;;;;;;0.00;0.00;;;;;;;18.39;60.19;99481.53;5329889;26;20087;-93
2023/09/21 02:07:57;;;;;;;0.25;0.20;;;;;;;18.36;60.18;99475.63;5310943;26;20064;-94
2023/09/21 02:10:24;;;;;;;0.10;0.10;;;;;;;18.27;60.18;99478.91;5310995;26;20052;-93
2023/09/21 02:12:57;;;;;;;0.10;0.10;;;;;;;18.26;60.19;99474.56;5347228;26;20051;-93
2023/09/21 02:15:23;;;;;;;0.32;0.20;;;;;;;18.38;60.20;99473.72;5311302;26;20127;-94
2023/09/21 02:17:49;;;;;;;1.02;0.65;;;;;;;18.28;60.18;99473.53;5347602;26;20056;-93
2023/09/21 02:20:15;;;;;;;0.20;0.20;;;;;;;18.27;60.18;99468.34;5310624;26;20058;-95
2023/09/21 02:22:45;;;;;;;0.30;0.20;;;;;;;18.16;60.18;99461.16;5311623;26;20421;-95
2023/09/21 02:25:10;;;;;;;0.00;0.00;;;;;;;18.26;60.19;99464.03;5330617;26;20123;-95
2023/09/21 02:27:40;;;;;;;0.10;0.10;;;;;;;18.30;60.18;99465.50;5310614;26;20059;-95
2023/09/21 02:30:07;;;;;;;0.25;0.25;;;;;;;18.44;60.19;99475.94;5310785;26;20035;-93
2023/09/21 02:32:33;;;;;;;0.20;0.20;;;;;;;18.32;60.19;99466.25;5310136;26;20114;-92
2023/09/21 02:34:59;;;;;;;0.00;0.00;;;;;;;18.25;60.19;99460.56;5309960;26;20104;-92
2023/09/21 02:37:25;;;;;;;0.28;0.28;;;;;;;18.24;60.19;99461.50;5310623;26;20143;-94
2023/09/21 02:39:51;;;;;;;0.05;0.00;;;;;;;18.32;60.19;99460.97;5329379;26;20052;-94
2023/09/21 02:42:16;;;;;;;0.00;0.00;;;;;;;18.44;60.19;99454.84;5312452;26;20083;-93
2023/09/21 02:44:42;;;;;;;0.00;0.00;;;;;;;18.43;60.19;99455.81;5311177;26;20067;-96
2023/09/21 02:47:49;;;;;;;0.50;0.43;;;;;;;18.26;60.19;99461.41;5313202;26;20078;-94
2023/09/21 02:50:15;;;;;;;0.00;0.00;;;;;;;18.33;60.19;99452.13;5338055;26;20088;-93
2023/09/21 02:52:46;;;;;;;0.10;0.10;;;;;;;18.34;60.18;99453.81;5313358;26;20341;-93
2023/09/21 02:55:18;;;;;;;0.40;0.40;;;;;;;18.33;60.19;99452.13;5346504;26;20063;-93
2023/09/21 02:58:00;;;;;;;0.05;0.05;;;;;;;18.36;60.18;99444.00;5311299;26;20127;-94
2023/09/21 03:00:26;;;;;;;0.30;0.25;;;;;;;18.28;60.18;99444.53;5311049;26;20367;-94
2023/09/21 03:02:55;;;;;;;0.50;0.50;;;;;;;18.48;60.19;99440.53;5328802;26;20066;-93
2023/09/21 03:05:22;;;;;;;0.00;0.00;;;;;;;18.43;60.19;99434.72;5310706;26;20133;-94
2023/09/21 03:07:48;;;;;;;0.00;0.00;;;;;;;18.42;60.19;99433.88;5310048;26;20484;-93
2023/09/21 03:10:16;;;;;;;0.25;0.25;;;;;;;18.36;60.19;99434.31;5310220;26;20056;-93
2023/09/21 03:12:41;;;;;;;0.20;0.20;;;;;;;18.18;60.18;99435.56;5311119;26;20070;-92
2023/09/21 03:15:08;;;;;;;0.35;0.35;;;;;;;18.37;60.19;99435.16;5310530;26;20086;-93
2023/09/21 03:17:36;;;;;;;0.75;0.75;;;;;;;18.26;60.19;99435.91;5311265;26;20068;-93
2023/09/21 03:20:11;;;;;;;0.08;0.08;;;;;;;18.31;60.19;99436.41;5329980;26;20104;-94
2023/09/21 03:22:39;;;;;;;0.10;0.10;;;;;;;18.23;60.19;99436.13;5332516;26;20640;-93
2023/09/21 03:25:11;;;;;;;0.15;0.15;;;;;;;18.38;60.19;99435.03;5311310;26;20060;-92
2023/09/21 03:27:38;;;;;;;0.55;0.45;;;;;;;18.40;60.19;99429.66;5313362;26;20068;-94
2023/09/21 03:30:05;;;;;;;0.20;0.20;;;;;;;18.54;60.20;99429.56;5311598;26;20069;-95
2023/09/21 03:32:31;;;;;;;0.55;0.37;;;;;;;18.80;60.21;99424.28;5312032;26;20067;-94
2023/09/21 03:34:56;;;;;;;0.20;0.20;;;;;;;18.55;60.20;99425.97;5311700;26;20091;-96
2023/09/21 03:37:34;;;;;;;0.03;0.03;;;;;;;18.53;60.19;99419.13;5311839;26;20172;-94
2023/09/21 03:40:02;;;;;;;0.43;0.43;;;;;;;18.76;60.20;99415.75;5313398;26;20075;-95
2023/09/21 03:42:28;;;;;;;0.35;0.35;;;;;;;18.66;60.20;99422.59;5311853;26;20086;-96
2023/09/21 03:44:54;;;;;;;0.15;0.15;;;;;;;18.68;60.20;99418.06;5311869;26;20060;-94
2023/09/21 03:47:20;;;;;;;0.00;0.00;;;;;;;18.72;60.20;99405.53;5312330;26;20110;-93
2023/09/21 03:49:45;;;;;;;0.03;0.03;;;;;;;18.92;60.21;99397.00;5311196;26;20078;-93
2023/09/21 03:52:15;;;;;;;0.05;0.05;;;;;;;18.78;60.21;99399.81;5310161;26;20063;-93
2023/09/21 03:54:42;;;;;;;18.12;1.35;;;;;;;18.85;60.21;99401.06;5312296;26;20060;-94
2023/09/21 03:57:08;;;;;;;0.00;0.00;;;;;;;18.79;60.21;99390.94;5310709;26;20088;-92
2023/09/21 03:59:34;;;;;;;0.15;0.10;;;;;;;18.81;60.21;99395.16;5310636;26;20729;-93
2023/09/21 04:02:00;;;;;;;0.20;0.20;;;;;;;18.98;60.21;99394.78;5310588;26;20074;-91
2023/09/21 04:04:25;;;;;;;0.13;0.13;;;;;;;19.24;60.23;99387.62;5312685;26;20032;-93
2023/09/21 04:06:51;;;;;;;3.40;1.35;;;;;;;19.09;60.23;99388.72;5312335;26;20060;-95
2023/09/21 04:09:18;;;;;;;0.10;0.10;;;;;;;19.31;60.24;99388.84;5327136;26;20064;-95
2023/09/21 04:11:43;;;;;;;0.20;0.10;;;;;;;19.28;60.23;99378.53;5332271;26;20029;-93
2023/09/21 04:14:09;;;;;;;0.32;0.32;;;;;;;19.43;60.24;99383.63;5313048;26;20060;-92
2023/09/21 04:16:34;;;;;;;1.95;0.30;;;;;;;19.44;60.24;99380.88;5326171;26;20118;-95
2023/09/21 04:19:05;;;;;;;0.10;0.10;;;;;;;19.60;60.25;99380.59;5307422;26;20070;-96
2023/09/21 04:21:31;;;;;;;0.00;0.00;;;;;;;19.64;60.25;99382.06;5306663;26;20060;-92
2023/09/21 04:23:57;;;;;;;0.10;0.10;;;;;;;19.77;60.27;99385.44;5306316;26;20114;-94
2023/09/21 04:26:22;;;;;;;0.00;0.00;;;;;;;19.71;60.26;99391.19;5325080;26;20072;-91
2023/09/21 04:28:49;;;;;;;0.25;0.25;;;;;;;19.80;60.26;99379.94;5306012;26;20104;-92
2023/09/21 04:31:25;;;;;;;0.10;0.10;;;;;;;19.84;60.25;99384.00;5324756;26;20094;-95
2023/09/21 04:34:11;;;;;;;0.30;0.30;;;;;;;19.90;60.27;99391.50;5307512;26;20068;-95
2023/09/21 04:36:57;;;;;;;;;;;;;;;;;;;;;
2023/09/21 04:39:28;;;;;;;0.10;0.10;;;;;;;19.90;60.26;99396.78;5327623;26;35828;-95
2023/09/21 04:42:12;;;;;;;1.08;0.45;;;;;;;19.92;60.26;99394.84;5308338;26;20052;-95
2023/09/21 04:45:32;;;;;;;;;;;;;;;;;;;;;
2023/09/21 04:55:19;;;;;;;;;;;;;;;;;;;;;
2023/09/21 04:58:20;;;;;;;;;;;;;;;;;;;;;
2023/09/21 05:01:20;;;;;;;;;;;;;;;;;;;;;
2023/09/21 05:03:46;;;;;;;2.20;0.98;;;;;;;20.36;60.29;99387.94;5328301;26;35400;-92
2023/09/21 05:06:23;;;;;;;0.20;0.20;;;;;;;20.26;60.28;99386.97;5306773;26;20094;-94
2023/09/21 05:08:59;;;;;;;;;;;;;;;;;;;;;
2023/09/21 05:16:19;;;;;;;;;;;;;;;;;;;;;
2023/09/21 05:22:28;;;;;;;0.10;0.10;;;;;;;20.48;60.30;99389.66;5294740;27;20126;-95
2023/09/21 05:25:05;;;;;;;0.10;0.10;;;;;;;20.63;60.31;99386.78;5333581;26;20189;-96
2023/09/21 05:39:31;;;;;;;0.40;0.40;;;;;;;20.72;60.31;99392.16;5087919;28;20124;-94
2023/09/21 05:42:18;;;;;;;0.10;0.10;;;;;;;20.76;60.31;99376.87;5078616;28;20064;-95
2023/09/21 05:45:35;;;;;;;;;;;;;;;;;;;;;
2023/09/21 06:06:23;;;;;;;0.10;0.10;;;;;;;20.94;60.33;99371.94;5366477;26;20145;-96
2023/09/21 08:21:14;;;;;;;10.07;1.10;;;;;;;24.43;60.50;99375.69;5323192;26;20036;-95
2023/09/21 08:23:51;;;;;;;1.08;0.22;;;;;;;24.56;60.51;99385.97;5341878;26;20075;-96
2023/09/21 08:26:19;;;;;;;0.20;0.20;;;;;;;24.52;60.51;99390.75;5381575;26;20020;-96
2023/09/21 08:28:45;;;;;;;0.10;0.10;;;;;;;24.65;60.51;99401.91;5372716;26;20094;-96
2023/09/21 08:39:20;;;;;;;0.00;0.00;;;;;;;24.20;60.50;99404.44;5390235;26;20066;-96
2023/09/21 08:42:33;;;;;;;;;;;;;;;;;;;;;
2023/09/21 08:45:44;;;;;;;;;;;;;;;;;;;;;
2023/09/21 08:53:09;;;;;;;0.60;0.60;;;;;;;23.41;60.45;99370.06;5348688;26;20016;-94
2023/09/21 08:56:04;;;;;;;;;;;;;;;;;;;;;
2023/09/21 08:59:08;;;;;;;0.05;0.05;;;;;;;23.37;60.45;99355.41;5329373;26;36180;-95
2023/09/21 09:02:20;;;;;;;0.62;0.62;;;;;;;23.31;60.45;99361.28;5328616;26;20067;-95
2023/09/21 09:27:15;;;;;;;;;;;;;;;;;;;;;
2023/09/21 13:10:28;;;;;;;0.30;0.30;;;;;;;29.37;60.76;99044.28;5339281;26;20120;-96
2023/09/21 13:13:27;;;;;;;;;;;;;;;;;;;;;
2023/09/21 13:16:07;;;;;;;4.40;1.55;;;;;;;29.30;60.75;99040.66;5358209;26;35156;-96
2023/09/21 13:18:48;;;;;;;0.47;0.40;;;;;;;29.41;60.75;99045.56;5342957;26;20067;-96
2023/09/21 13:21:37;;;;;;;1.12;1.08;;;;;;;29.51;60.77;99034.56;5343607;26;20044;-96
2023/09/21 13:24:32;;;;;;;0.40;0.40;;;;;;;29.64;60.78;99024.84;5360660;26;20059;-96
2023/09/21 13:27:17;;;;;;;0.40;0.32;;;;;;;29.67;60.78;99020.94;5379208;26;20028;-96
2023/09/21 13:29:46;;;;;;;0.30;0.30;;;;;;;29.64;60.78;99011.41;5359230;26;20194;-96
2023/09/21 13:32:20;;;;;;;0.47;0.35;;;;;;;29.58;60.78;99016.72;5368499;26;20047;-96
2023/09/21 13:34:50;;;;;;;0.20;0.20;;;;;;;29.73;60.78;99008.63;5360522;26;20032;-96
2023/09/21 13:37:19;;;;;;;0.30;0.30;;;;;;;29.94;60.79;99003.25;5345275;26;20252;-96
2023/09/21 13:40:36;;;;;;;1.03;0.93;;;;;;;30.02;60.79;98997.75;5341828;26;20057;-96
2023/09/21 13:43:05;;;;;;;0.75;0.65;;;;;;;30.07;60.80;99008.81;5374291;26;20135;-95
2023/09/21 13:48:04;;;;;;;0.03;0.03;;;;;;;29.96;60.78;98990.50;5359077;26;20766;-96
2023/09/21 13:50:30;;;;;;;1.05;0.73;;;;;;;29.97;60.80;98994.81;5295752;26;20020;-96
2023/09/21 13:53:04;;;;;;;0.65;0.32;;;;;;;29.91;60.79;98996.44;5312595;26;20039;-96
2023/09/21 13:55:32;;;;;;;0.43;0.43;;;;;;;29.97;60.79;98992.16;5359043;26;20044;-95
2023/09/21 13:58:02;;;;;;;0.10;0.10;;;;;;;29.84;60.79;98984.81;5323098;26;20057;-96
2023/09/21 14:00:33;;;;;;;0.40;0.40;;;;;;;29.95;60.78;98984.28;5334626;26;20032;-96
2023/09/21 14:06:57;;;;;;;0.70;0.70;;;;;;;30.01;60.79;98984.53;5381311;26;20040;-96
2023/09/21 14:11:58;;;;;;;26.08;1.85;;;;;;;30.02;60.79;98981.66;5398990;26;20064;-96
2023/09/21 14:14:28;;;;;;;0.88;0.88;;;;;;;30.02;60.79;98981.66;5345555;26;20023;-96
2023/09/21 14:16:55;;;;;;;3.25;1.25;;;;;;;29.93;60.79;98980.13;5373197;26;20087;-96
2023/09/21 14:19:24;;;;;;;0.40;0.35;;;;;;;29.93;60.79;98975.59;5362059;26;20423;-96
2023/09/21 14:21:52;;;;;;;1.95;0.55;;;;;;;29.86;60.78;98973.88;5362610;26;20056;-96
2023/09/21 14:24:33;;;;;;;0.10;0.10;;;;;;;29.83;60.79;98974.28;5344946;26;20033;-96
2023/09/21 14:27:09;;;;;;;0.70;0.70;;;;;;;29.54;60.77;98965.28;5353986;26;20069;-96
2023/09/21 14:29:37;;;;;;;0.60;0.30;;;;;;;29.70;60.78;98963.41;5343008;26;21236;-96
2023/09/21 14:32:06;;;;;;;0.22;0.22;;;;;;;29.73;60.78;98963.84;5355809;26;20055;-96
2023/09/21 14:34:33;;;;;;;0.00;0.00;;;;;;;29.81;60.79;98958.38;5338082;26;20020;-96
2023/09/21 14:37:05;;;;;;;0.25;0.25;;;;;;;29.88;60.80;98950.38;5354751;26;20659;-96
2023/09/21 14:39:32;;;;;;;1.75;0.95;;;;;;;29.70;60.78;98947.31;5337908;26;20075;-96
2023/09/21 14:42:00;;;;;;;0.85;0.50;;;;;;;29.63;60.77;98948.06;5337240;26;20071;-96
2023/09/21 14:44:26;;;;;;;0.68;0.57;;;;;;;29.59;60.77;98944.13;5336000;26;20059;-96
2023/09/21 14:46:52;;;;;;;1.27;0.50;;;;;;;29.51;60.77;98948.75;5353579;26;20061;-96
2023/09/21 14:49:18;;;;;;;1.87;0.40;;;;;;;29.60;60.77;98945.78;5352934;26;20063;-96
2023/09/21 14:51:43;;;;;;;1.02;0.55;;;;;;;29.51;60.78;98944.22;5334539;26;20388;-96
2023/09/21 14:54:11;;;;;;;0.30;0.22;;;;;;;29.38;60.76;98944.06;5335870;26;20086;-96
2023/09/21 14:56:37;;;;;;;0.20;0.20;;;;;;;29.41;60.77;98932.94;5341282;26;20088;-96
2023/09/21 14:59:03;;;;;;;4.45;0.52;;;;;;;29.39;60.76;98932.31;5339425;26;20052;-96
2023/09/21 15:01:29;;;;;;;0.10;0.10;;;;;;;29.33;60.77;98927.69;5339554;26;20027;-96
2023/09/21 15:06:29;;;;;;;0.68;0.25;;;;;;;29.38;60.76;98929.81;5357227;26;20040;-95
2023/09/21 15:11:31;;;;;;;1.02;0.55;;;;;;;29.30;60.76;98917.34;5361472;26;19947;-96
2023/09/21 15:13:58;;;;;;;0.37;0.37;;;;;;;29.14;60.75;98917.59;5326296;26;20098;-96
2023/09/21 15:17:00;;;;;;;1.95;0.90;;;;;;;29.08;60.75;98921.00;5339493;26;20083;-96
2023/09/21 15:20:12;;;;;;;0.30;0.30;;;;;;;29.17;60.76;98909.16;5336717;26;20025;-96
2023/09/21 15:22:45;;;;;;;0.25;0.25;;;;;;;29.11;60.75;98904.56;5360250;26;20047;-96
2023/09/21 15:25:12;;;;;;;0.73;0.73;;;;;;;28.91;60.74;98894.44;5350467;26;20023;-94
2023/09/21 15:27:39;;;;;;;5.18;0.98;;;;;;;28.96;60.74;98900.06;5312882;26;20080;-96
2023/09/21 15:30:06;;;;;;;0.22;0.15;;;;;;;29.00;60.74;98889.78;5332213;26;20028;-96
2023/09/21 15:32:35;;;;;;;0.55;0.55;;;;;;;29.01;60.75;98888.78;5297424;26;20052;-95
2023/09/21 15:35:04;;;;;;;0.00;0.00;;;;;;;28.93;60.75;98880.84;5315862;26;20040;-96
2023/09/21 15:37:33;;;;;;;0.17;0.17;;;;;;;29.06;60.75;98882.84;5330610;26;20028;-95
2023/09/21 15:40:04;;;;;;;3.67;0.80;;;;;;;28.85;60.73;98878.22;5295935;26;20021;-96
2023/09/21 15:42:30;;;;;;;0.08;0.08;;;;;;;28.61;60.72;98877.50;5335610;26;20017;-96
2023/09/21 15:45:03;;;;;;;0.35;0.35;;;;;;;28.61;60.72;98876.69;5317805;26;20064;-96
2023/09/21 15:47:28;;;;;;;0.85;0.52;;;;;;;28.69;60.73;98877.44;5333675;26;20057;-95
2023/09/21 15:49:54;;;;;;;0.55;0.28;;;;;;;28.62;60.73;98878.34;5292491;26;20100;-96
2023/09/21 15:52:21;;;;;;;0.00;0.00;;;;;;;28.64;60.73;98881.69;5306336;26;20052;-96
2023/09/21 15:54:47;;;;;;;1.80;0.95;;;;;;;28.51;60.71;98876.97;5312522;26;20716;-96
2023/09/21 15:57:12;;;;;;;1.77;0.37;;;;;;;28.35;60.71;98875.28;5331414;26;20666;-96
2023/09/21 15:59:38;;;;;;;1.65;1.05;;;;;;;28.37;60.71;98877.78;5313195;26;20060;-96
2023/09/21 16:02:05;;;;;;;0.70;0.52;;;;;;;28.29;60.72;98889.41;5312601;26;20305;-96
2023/09/21 16:04:30;;;;;;;0.50;0.50;;;;;;;28.21;60.71;98878.78;5333018;26;20104;-96
2023/09/21 16:06:59;;;;;;;0.93;0.35;;;;;;;28.19;60.70;98883.47;5314075;26;20063;-95
2023/09/21 16:09:28;;;;;;;0.80;0.70;;;;;;;28.08;60.70;98892.78;5332896;26;20764;-96
2023/09/21 16:11:54;;;;;;;0.30;0.30;;;;;;;28.05;60.71;98892.31;5330696;26;20009;-96
2023/09/21 16:14:20;;;;;;;0.10;0.10;;;;;;;28.11;60.70;98883.53;5331029;26;20053;-95
2023/09/21 16:16:45;;;;;;;1.23;0.70;;;;;;;27.98;60.70;98888.69;5312529;26;20067;-96
2023/09/21 16:19:12;;;;;;;0.25;0.20;;;;;;;27.90;60.68;98883.41;5312996;26;20113;-96
2023/09/21 16:21:40;;;;;;;0.75;0.65;;;;;;;27.85;60.69;98886.63;5332490;26;20048;-96
2023/09/21 16:24:09;;;;;;;0.28;0.28;;;;;;;27.87;60.68;98873.91;5315380;26;20557;-96
2023/09/21 16:26:34;;;;;;;0.35;0.35;;;;;;;27.76;60.69;98872.50;5331180;26;20056;-95
2023/09/21 16:29:03;;;;;;;0.15;0.15;;;;;;;27.60;60.68;98874.44;5311655;26;20063;-95
2023/09/21 16:31:29;;;;;;;0.32;0.13;;;;;;;27.54;60.67;98873.31;5349679;26;20715;-96
2023/09/21 16:33:57;;;;;;;24.55;0.85;;;;;;;27.49;60.66;98865.00;5332118;26;20053;-96
2023/09/21 16:36:26;;;;;;;0.37;0.30;;;;;;;27.49;60.66;98875.69;5334574;26;20072;-96
2023/09/21 16:38:52;;;;;;;0.30;0.30;;;;;;;27.41;60.66;98875.75;5319118;26;20076;-96
2023/09/21 16:41:18;;;;;;;0.95;0.47;;;;;;;27.34;60.67;98880.13;5331058;26;20400;-96
2023/09/21 16:43:44;;;;;;;0.20;0.20;;;;;;;27.35;60.67;98876.47;5313726;26;20052;-96
2023/09/21 16:46:11;;;;;;;1.92;1.00;;;;;;;27.24;60.66;98868.88;5312878;26;20025;-96
2023/09/21 16:48:37;;;;;;;1.65;0.62;;;;;;;27.19;60.66;98870.19;5313720;26;20707;-96
2023/09/21 16:51:03;;;;;;;0.37;0.20;;;;;;;27.10;60.64;98873.09;5312767;26;20063;-96
2023/09/21 16:53:29;;;;;;;0.30;0.30;;;;;;;27.29;60.66;98869.16;5314157;26;20052;-96
2023/09/21 16:55:55;;;;;;;1.02;0.80;;;;;;;27.15;60.66;98865.37;5313335;26;20094;-96
2023/09/21 16:58:21;;;;;;;2.10;1.30;;;;;;;27.08;60.65;98865.28;5315181;26;20032;-96
2023/09/21 17:00:48;;;;;;;2.70;1.50;;;;;;;27.03;60.66;98866.81;5310266;26;20074;-96
2023/09/21 17:03:14;;;;;;;0.52;0.45;;;;;;;27.02;60.64;98865.97;5311834;26;20056;-94
2023/09/21 17:05:40;;;;;;;0.57;0.57;;;;;;;27.04;60.65;98866.63;5330743;26;20060;-96
2023/09/21 17:08:06;;;;;;;0.52;0.32;;;;;;;26.96;60.65;98866.63;5311412;26;20081;-95
2023/09/21 17:10:32;;;;;;;0.20;0.20;;;;;;;27.05;60.65;98860.28;5311625;26;20350;-95
2023/09/21 17:13:03;;;;;;;0.30;0.30;;;;;;;27.04;60.64;98871.16;5330730;26;20403;-96
2023/09/21 17:15:30;;;;;;;0.00;0.00;;;;;;;26.95;60.64;98864.13;5311535;26;20064;-96
2023/09/21 17:17:56;;;;;;;0.30;0.30;;;;;;;26.95;60.65;98872.97;5312479;26;20063;-96
2023/09/21 17:20:22;;;;;;;0.40;0.40;;;;;;;26.93;60.64;98877.66;5332569;26;20065;-96
2023/09/21 17:22:49;;;;;;;1.37;0.98;;;;;;;27.02;60.65;98881.19;5310535;26;20048;-96
2023/09/21 17:25:17;;;;;;;2.65;0.52;;;;;;;27.24;60.65;98900.94;5331815;26;20153;-96
2023/09/21 17:32:19;;;;;;;0.30;0.30;;;;;;;27.12;60.65;98909.31;5356384;26;20058;-96
2023/09/21 17:35:45;;;;;;;1.10;1.05;;;;;;;26.87;60.64;98913.91;5348266;26;20047;-92
2023/09/21 18:00:25;;;;;;;0.10;0.10;;;;;;;25.28;60.55;98930.47;5067110;27;20078;-96
2023/09/21 18:03:02;;;;;;;1.27;0.52;;;;;;;25.18;60.55;98924.44;5200186;27;20025;-96
2023/09/21 18:05:28;;;;;;;0.10;0.10;;;;;;;25.17;60.56;98929.94;5322693;26;20024;-93
2023/09/21 18:40:17;;;;;;;;;;;;;;;;;;;;;
2023/09/21 18:42:46;;;;;;;1.10;0.55;;;;;;;24.57;60.51;98922.00;5230898;27;36716;-94
2023/09/21 18:45:13;;;;;;;0.20;0.20;;;;;;;24.46;60.51;98925.75;5219931;27;20040;-94
2023/09/21 18:47:48;;;;;;;0.47;0.47;;;;;;;24.45;60.51;98924.94;5219305;27;20159;-96
2023/09/21 18:50:45;;;;;;;;;;;;;;;;;;;;;
2023/09/21 18:53:20;;;;;;;0.88;0.82;;;;;;;24.26;60.50;98926.94;5352844;26;36419;-96
2023/09/21 18:56:01;;;;;;;;;;;;;;;;;;;;;
2023/09/21 19:01:25;;;;;;;0.85;0.55;;;;;;;24.13;60.49;98912.25;5340770;26;20250;-94
2023/09/21 19:04:08;;;;;;;1.35;0.82;;;;;;;24.01;60.48;98924.09;5314363;26;20721;-95
2023/09/21 19:06:41;;;;;;;0.30;0.30;;;;;;;24.06;60.49;98920.97;5314474;26;20123;-95
2023/09/21 19:09:15;;;;;;;0.93;0.65;;;;;;;24.00;60.48;98924.25;5312326;26;20020;-95
2023/09/21 19:12:06;;;;;;;0.20;0.20;;;;;;;23.76;60.48;98915.09;5313224;26;20086;-93
2023/09/21 19:14:44;;;;;;;0.68;0.68;;;;;;;23.68;60.47;98924.81;5334855;26;20052;-92
2023/09/21 19:17:24;;;;;;;0.75;0.68;;;;;;;23.68;60.47;98924.81;5314660;26;20063;-94
2023/09/21 19:19:52;;;;;;;2.62;0.73;;;;;;;23.53;60.46;98935.94;5314745;26;20051;-92
2023/09/21 19:22:20;;;;;;;3.40;0.70;;;;;;;23.50;60.47;98936.25;5314884;26;20052;-94
2023/09/21 19:24:54;;;;;;;0.30;0.30;;;;;;;23.44;60.46;98944.81;5316314;26;20088;-94
2023/09/21 19:27:29;;;;;;;0.05;0.05;;;;;;;23.41;60.45;98945.09;5331058;26;20058;-93
2023/09/21 19:30:07;;;;;;;0.32;0.32;;;;;;;23.21;60.44;98938.25;5323301;26;20074;-93
2023/09/21 19:32:43;;;;;;;15.05;3.12;;;;;;;23.35;60.46;98942.22;5313430;26;20024;-92
2023/09/21 19:35:27;;;;;;;0.85;0.57;;;;;;;23.25;60.44;98944.94;5347192;26;20472;-93
2023/09/21 19:38:25;;;;;;;;;;;;;;;;;;;;;
2023/09/21 19:41:03;;;;;;;0.25;0.10;;;;;;;23.44;60.46;98951.94;5348428;26;36695;-91
2023/09/21 19:43:42;;;;;;;0.30;0.30;;;;;;;23.45;60.45;98951.81;5329680;26;20055;-94
2023/09/21 19:46:15;;;;;;;1.12;1.12;;;;;;;23.56;60.46;98946.28;5331223;26;20060;-94
2023/09/21 19:49:21;;;;;;;;;;;;;;;;;;;;;
2023/09/21 19:52:07;;;;;;;0.82;0.68;;;;;;;23.55;60.46;98952.56;5353233;26;35860;-93
2023/09/21 19:54:45;;;;;;;0.65;0.65;;;;;;;23.64;60.46;98952.66;5330276;26;20044;-94
2023/09/21 19:57:31;;;;;;;6.53;1.65;;;;;;;23.62;60.46;98960.78;5313456;26;20074;-93
2023/09/21 20:00:00;;;;;;;0.30;0.30;;;;;;;23.69;60.47;98958.38;5314307;26;20109;-94
2023/09/21 20:02:26;;;;;;;0.60;0.60;;;;;;;23.85;60.47;98956.69;5310897;26;20079;-94
2023/09/21 20:04:53;;;;;;;0.57;0.25;;;;;;;23.83;60.48;98971.13;5331480;26;20673;-92
2023/09/21 20:07:21;;;;;;;0.47;0.28;;;;;;;23.92;60.48;98972.87;5310972;26;20122;-95
2023/09/21 20:09:49;;;;;;;0.25;0.25;;;;;;;23.85;60.47;98969.12;5311292;26;20107;-96
2023/09/21 20:12:15;;;;;;;0.40;0.40;;;;;;;23.92;60.48;98966.72;5331427;26;20746;-96
2023/09/21 20:14:41;;;;;;;0.47;0.45;;;;;;;24.00;60.48;98970.28;5348451;26;20048;-96
2023/09/21 20:17:08;;;;;;;0.00;0.00;;;;;;;23.83;60.48;98973.78;5331008;26;20093;-95
2023/09/21 20:19:35;;;;;;;0.45;0.45;;;;;;;23.90;60.48;98972.19;5313608;26;20130;-96
2023/09/21 20:22:02;;;;;;;0.00;0.00;;;;;;;23.94;60.48;98970.06;5332412;26;20024;-96
2023/09/21 20:24:29;;;;;;;2.08;0.73;;;;;;;23.82;60.48;98978.25;5315837;26;20776;-96
2023/09/21 20:26:57;;;;;;;2.78;1.10;;;;;;;23.82;60.48;98978.25;5313995;26;20080;-96
2023/09/21 20:29:23;;;;;;;1.02;0.70;;;;;;;23.82;60.47;98964.13;5333024;26;20060;-95
2023/09/21 20:31:53;;;;;;;0.65;0.65;;;;;;;23.88;60.47;98960.84;5335203;26;20060;-96
2023/09/21 20:34:20;;;;;;;0.43;0.13;;;;;;;23.85;60.47;98963.81;5314365;26;20114;-91
2023/09/21 20:36:52;;;;;;;3.53;0.52;;;;;;;23.84;60.47;98954.19;5327881;26;20084;-90
2023/09/21 20:39:17;;;;;;;1.48;1.37;;;;;;;23.78;60.46;98949.47;5312191;26;20123;-96
2023/09/21 20:41:54;;;;;;;0.00;0.00;;;;;;;23.81;60.48;98955.31;5332568;26;20031;-95
2023/09/21 20:44:20;;;;;;;0.90;0.80;;;;;;;23.71;60.46;98949.25;5311991;26;20049;-95
2023/09/21 20:46:46;;;;;;;1.27;0.75;;;;;;;23.70;60.47;98933.47;5311638;26;20075;-94
2023/09/21 20:49:12;;;;;;;0.43;0.43;;;;;;;23.59;60.46;98931.88;5330280;26;20068;-96
2023/09/21 20:51:38;;;;;;;0.00;0.00;;;;;;;23.56;60.45;98932.16;5314589;26;20048;-95